Time,TemperatureF,DewpointF,PressureIn,WindDirection,WindDirectionDegrees,WindSpeedMPH,WindSpeedGustMPH,Humidity,HourlyPrecipIn,Conditions,Clouds,dailyrainin,SolarRadiationWatts/m^2,SoftwareType,DateUTC
2013-11-22 00:02:00,50.0,45.0,-100.00,South,170,3.0,4.0,82,0.00,,,0.00,0.000000,,2013-11-22 05:02:00,
2013-11-22 00:12:00,50.0,45.0,-100.00,South,170,3.0,4.0,82,0.00,,,0.00,0.000000,,2013-11-22 05:12:00,
2013-11-22 00:43:00,49.0,44.0,-100.00,SSE,166,3.0,5.0,83,0.00,,,0.00,0.000000,,2013-11-22 05:43:00,
2013-11-22 00:53:00,49.0,44.0,-100.00,SSE,166,3.0,5.0,83,0.00,,,0.00,0.000000,,2013-11-22 05:53:00,
2013-11-22 01:02:00,49.0,44.0,-100.00,SSE,166,3.0,5.0,83,0.00,,,0.00,0.000000,,2013-11-22 06:02:00,
2013-11-22 01:12:00,49.0,44.0,-100.00,SSE,166,3.0,5.0,83,0.00,,,0.00,0.000000,,2013-11-22 06:12:00,
2013-11-22 01:42:00,51.0,47.0,-100.00,South,185,3.0,5.0,85,0.00,,,0.00,0.000000,,2013-11-22 06:42:00,
2013-11-22 01:52:00,51.0,47.0,-100.00,South,185,3.0,5.0,85,0.00,,,0.00,0.000000,,2013-11-22 06:52:00,
2013-11-22 02:02:00,51.0,47.0,-100.00,South,185,3.0,5.0,85,0.00,,,0.00,0.000000,,2013-11-22 07:02:00,
2013-11-22 02:12:00,51.0,47.0,-100.00,South,185,3.0,5.0,85,0.00,,,0.00,0.000000,,2013-11-22 07:12:00,
2013-11-22 02:42:00,51.0,47.0,-100.00,SSE,158,3.0,4.0,85,0.00,,,0.00,0.000000,,2013-11-22 07:42:00,
2013-11-22 02:52:00,51.0,47.0,-100.00,SSE,158,3.0,4.0,85,0.00,,,0.00,0.000000,,2013-11-22 07:52:00,
2013-11-22 03:01:00,51.0,47.0,-100.00,SSE,158,3.0,4.0,85,0.00,,,0.00,0.000000,,2013-11-22 08:01:00,
2013-11-22 03:12:00,51.0,47.0,-100.00,SSE,158,3.0,4.0,85,0.00,,,0.00,0.000000,,2013-11-22 08:12:00,
2013-11-22 03:42:00,51.0,47.0,-100.00,South,178,2.0,3.0,85,0.00,,,0.00,0.000000,,2013-11-22 08:42:00,
2013-11-22 03:52:00,51.0,47.0,-100.00,South,178,2.0,3.0,85,0.00,,,0.00,0.000000,,2013-11-22 08:52:00,
2013-11-22 04:02:00,51.0,47.0,-100.00,South,178,2.0,3.0,85,0.00,,,0.00,0.000000,,2013-11-22 09:02:00,
2013-11-22 04:12:00,51.0,47.0,-100.00,South,178,2.0,3.0,85,0.00,,,0.00,0.000000,,2013-11-22 09:12:00,
2013-11-22 04:43:00,50.0,46.0,-100.00,South,174,2.0,4.0,85,0.00,,,0.00,0.000000,,2013-11-22 09:43:00,
2013-11-22 04:53:00,50.0,46.0,-100.00,South,174,2.0,4.0,85,0.00,,,0.00,0.000000,,2013-11-22 09:53:00,
2013-11-22 05:03:00,50.0,46.0,-100.00,South,174,2.0,4.0,85,0.00,,,0.00,0.000000,,2013-11-22 10:03:00,
2013-11-22 05:13:00,50.0,46.0,-100.00,South,174,2.0,4.0,85,0.00,,,0.00,0.000000,,2013-11-22 10:13:00,
2013-11-22 05:43:00,50.0,46.0,-100.00,NW,325,1.0,3.0,87,0.00,,,0.00,0.000000,,2013-11-22 10:43:00,
2013-11-22 05:53:00,50.0,46.0,-100.00,NW,325,1.0,3.0,87,0.00,,,0.00,0.000000,,2013-11-22 10:53:00,
2013-11-22 06:02:00,50.0,46.0,-100.00,NW,325,1.0,3.0,87,0.00,,,0.00,0.000000,,2013-11-22 11:02:00,
2013-11-22 06:12:00,50.0,46.0,-100.00,NW,325,1.0,3.0,87,0.00,,,0.00,0.000000,,2013-11-22 11:12:00,
2013-11-22 06:43:00,50.0,47.0,-100.00,SE,132,2.0,2.0,89,0.00,,,0.00,0.000000,,2013-11-22 11:43:00,
2013-11-22 06:52:00,50.0,47.0,-100.00,SE,132,2.0,2.0,89,0.00,,,0.00,0.000000,,2013-11-22 11:52:00,
2013-11-22 07:02:00,50.0,47.0,-100.00,SE,132,2.0,2.0,89,0.00,,,0.00,0.000000,,2013-11-22 12:02:00,
2013-11-22 07:12:00,50.0,47.0,-100.00,SE,132,2.0,2.0,89,0.00,,,0.00,0.000000,,2013-11-22 12:12:00,
2013-11-22 07:42:00,50.0,46.0,-100.00,SSE,156,1.0,4.0,87,0.00,,,0.00,0.000000,,2013-11-22 12:42:00,
2013-11-22 07:52:00,50.0,46.0,-100.00,SSE,156,1.0,4.0,87,0.00,,,0.00,0.000000,,2013-11-22 12:52:00,
2013-11-22 08:02:00,50.0,46.0,-100.00,SSE,156,1.0,4.0,87,0.00,,,0.00,0.000000,,2013-11-22 13:02:00,
2013-11-22 08:11:00,50.0,46.0,-100.00,SSE,156,1.0,4.0,87,0.00,,,0.00,0.000000,,2013-11-22 13:11:00,
2013-11-22 08:52:00,50.0,48.0,-100.00,SE,129,1.0,4.0,93,0.00,,,0.00,7.000000,,2013-11-22 13:52:00,
2013-11-22 09:02:00,50.0,48.0,-100.00,SE,129,1.0,4.0,93,0.00,,,0.00,7.000000,,2013-11-22 14:02:00,
2013-11-22 09:12:00,50.0,48.0,-100.00,SE,129,1.0,4.0,93,0.00,,,0.00,7.000000,,2013-11-22 14:12:00,
2013-11-22 09:42:00,53.0,49.0,-100.00,SSW,212,2.0,3.0,87,0.00,,,0.00,66.000000,,2013-11-22 14:42:00,
2013-11-22 09:52:00,53.0,49.0,-100.00,SSW,212,2.0,3.0,87,0.00,,,0.00,66.000000,,2013-11-22 14:52:00,
2013-11-22 10:02:00,53.0,49.0,-100.00,SSW,212,2.0,3.0,87,0.00,,,0.00,66.000000,,2013-11-22 15:02:00,
2013-11-22 10:11:00,53.0,49.0,-100.00,SSW,212,2.0,3.0,87,0.00,,,0.00,66.000000,,2013-11-22 15:11:00,
2013-11-22 10:44:00,56.0,50.0,-100.00,SSW,206,3.0,5.0,79,0.00,,,0.00,135.000000,,2013-11-22 15:44:00,
2013-11-22 10:54:00,56.0,50.0,-100.00,SSW,206,3.0,5.0,79,0.00,,,0.00,135.000000,,2013-11-22 15:54:00,
2013-11-22 11:03:00,56.0,50.0,-100.00,SSW,206,3.0,5.0,79,0.00,,,0.00,135.000000,,2013-11-22 16:03:00,
2013-11-22 11:13:00,56.0,50.0,-100.00,SSW,206,3.0,5.0,79,0.00,,,0.00,135.000000,,2013-11-22 16:13:00,
2013-11-22 11:44:00,60.0,51.0,-100.00,WSW,248,5.0,12.0,73,0.00,,,0.00,192.000000,,2013-11-22 16:44:00,
2013-11-22 11:53:00,60.0,51.0,-100.00,WSW,248,5.0,12.0,73,0.00,,,0.00,192.000000,,2013-11-22 16:53:00,
2013-11-22 12:03:00,60.0,51.0,-100.00,WSW,248,5.0,12.0,73,0.00,,,0.00,192.000000,,2013-11-22 17:03:00,
2013-11-22 12:12:00,60.0,51.0,-100.00,WSW,248,5.0,12.0,73,0.00,,,0.00,192.000000,,2013-11-22 17:12:00,
2013-11-22 12:42:00,62.0,51.0,-100.00,WSW,249,5.0,13.0,67,0.00,,,0.00,159.000000,,2013-11-22 17:42:00,
2013-11-22 12:52:00,62.0,51.0,-100.00,WSW,249,5.0,13.0,67,0.00,,,0.00,159.000000,,2013-11-22 17:52:00,
2013-11-22 13:02:00,62.0,51.0,-100.00,WSW,249,5.0,13.0,67,0.00,,,0.00,159.000000,,2013-11-22 18:02:00,
2013-11-22 13:12:00,62.0,51.0,-100.00,WSW,249,5.0,13.0,67,0.00,,,0.00,159.000000,,2013-11-22 18:12:00,
2013-11-22 13:42:00,60.0,50.0,-100.00,WSW,249,6.0,12.0,70,0.00,,,0.00,127.000000,,2013-11-22 18:42:00,
2013-11-22 13:52:00,60.0,50.0,-100.00,WSW,249,6.0,12.0,70,0.00,,,0.00,127.000000,,2013-11-22 18:52:00,
2013-11-22 14:01:00,60.0,50.0,-100.00,WSW,249,6.0,12.0,70,0.00,,,0.00,127.000000,,2013-11-22 19:01:00,
2013-11-22 14:11:00,60.0,50.0,-100.00,WSW,249,6.0,12.0,70,0.00,,,0.00,127.000000,,2013-11-22 19:11:00,
2013-11-22 14:42:00,56.0,54.0,-100.00,SSW,211,3.0,12.0,93,0.01,,,0.01,61.000000,,2013-11-22 19:42:00,
2013-11-22 14:53:00,56.0,54.0,-100.00,SSW,211,3.0,12.0,93,0.01,,,0.01,61.000000,,2013-11-22 19:53:00,
2013-11-22 15:02:00,56.0,54.0,-100.00,SSW,211,3.0,12.0,93,0.01,,,0.01,61.000000,,2013-11-22 20:02:00,
2013-11-22 15:11:00,56.0,54.0,-100.00,SSW,211,3.0,12.0,93,0.01,,,0.01,61.000000,,2013-11-22 20:11:00,
2013-11-22 15:42:00,55.0,54.0,-100.00,SW,221,3.0,9.0,96,0.01,,,0.02,36.000000,,2013-11-22 20:42:00,
2013-11-22 15:52:00,55.0,54.0,-100.00,SW,221,3.0,9.0,96,0.01,,,0.02,36.000000,,2013-11-22 20:52:00,
2013-11-22 16:02:00,55.0,54.0,-100.00,SW,221,3.0,9.0,96,0.01,,,0.02,36.000000,,2013-11-22 21:02:00,
2013-11-22 16:11:00,55.0,54.0,-100.00,SW,221,3.0,9.0,96,0.01,,,0.02,36.000000,,2013-11-22 21:11:00,
2013-11-22 16:43:00,54.0,53.0,-100.00,SW,224,3.0,6.0,97,0.03,,,0.05,12.000000,,2013-11-22 21:43:00,
2013-11-22 16:53:00,54.0,53.0,-100.00,SW,224,3.0,6.0,97,0.03,,,0.05,12.000000,,2013-11-22 21:53:00,
2013-11-22 17:03:00,54.0,53.0,-100.00,SW,224,3.0,6.0,97,0.03,,,0.05,12.000000,,2013-11-22 22:03:00,
2013-11-22 17:13:00,54.0,53.0,-100.00,SW,224,3.0,6.0,97,0.03,,,0.05,12.000000,,2013-11-22 22:13:00,
2013-11-22 17:42:00,54.0,53.0,-100.00,SW,231,4.0,8.0,97,0.02,,,0.07,2.000000,,2013-11-22 22:42:00,
2013-11-22 17:53:00,54.0,53.0,-100.00,SW,231,4.0,8.0,97,0.02,,,0.07,2.000000,,2013-11-22 22:53:00,
2013-11-22 18:02:00,54.0,53.0,-100.00,SW,231,4.0,8.0,97,0.02,,,0.07,2.000000,,2013-11-22 23:02:00,
2013-11-22 18:12:00,54.0,53.0,-100.00,SW,231,4.0,8.0,97,0.02,,,0.07,2.000000,,2013-11-22 23:12:00,
2013-11-22 18:42:00,54.0,53.0,-100.00,WSW,247,3.0,6.0,97,0.03,,,0.10,0.000000,,2013-11-22 23:42:00,
2013-11-22 18:53:00,54.0,53.0,-100.00,WSW,247,3.0,6.0,97,0.03,,,0.10,0.000000,,2013-11-22 23:53:00,
2013-11-22 19:02:00,54.0,53.0,-100.00,WSW,247,3.0,6.0,97,0.03,,,0.10,0.000000,,2013-11-23 00:02:00,
2013-11-22 19:12:00,54.0,53.0,-100.00,WSW,247,3.0,6.0,97,0.03,,,0.10,0.000000,,2013-11-23 00:12:00,
2013-11-22 19:42:00,53.0,52.0,-100.00,NNW,327,3.0,9.0,97,0.03,,,0.13,0.000000,,2013-11-23 00:42:00,
2013-11-22 19:52:00,53.0,52.0,-100.00,NNW,327,3.0,9.0,97,0.03,,,0.13,0.000000,,2013-11-23 00:52:00,
2013-11-22 20:02:00,53.0,52.0,-100.00,NNW,327,3.0,9.0,97,0.03,,,0.13,0.000000,,2013-11-23 01:02:00,
2013-11-22 20:11:00,53.0,52.0,-100.00,NNW,327,3.0,9.0,97,0.03,,,0.13,0.000000,,2013-11-23 01:11:00,
2013-11-22 20:42:00,52.0,51.0,-100.00,NNW,328,4.0,11.0,98,0.03,,,0.16,0.000000,,2013-11-23 01:42:00,
2013-11-22 20:53:00,52.0,51.0,-100.00,NNW,328,4.0,11.0,98,0.03,,,0.16,0.000000,,2013-11-23 01:53:00,
2013-11-22 21:02:00,52.0,51.0,-100.00,NNW,328,4.0,11.0,98,0.03,,,0.16,0.000000,,2013-11-23 02:02:00,
2013-11-22 21:11:00,52.0,51.0,-100.00,NNW,328,4.0,11.0,98,0.03,,,0.16,0.000000,,2013-11-23 02:11:00,
2013-11-22 21:42:00,51.0,50.0,-100.00,NNW,330,4.0,10.0,96,0.00,,,0.16,0.000000,,2013-11-23 02:42:00,
2013-11-22 21:53:00,51.0,50.0,-100.00,NNW,330,4.0,10.0,96,0.00,,,0.16,0.000000,,2013-11-23 02:53:00,
2013-11-22 22:02:00,51.0,50.0,-100.00,NNW,330,4.0,10.0,96,0.00,,,0.16,0.000000,,2013-11-23 03:02:00,
2013-11-22 22:12:00,51.0,50.0,-100.00,NNW,330,4.0,10.0,96,0.00,,,0.16,0.000000,,2013-11-23 03:12:00,
2013-11-22 22:44:00,48.0,46.0,-100.00,NW,319,6.0,15.0,93,0.00,,,0.16,0.000000,,2013-11-23 03:44:00,
2013-11-22 22:53:00,48.0,46.0,-100.00,NW,319,6.0,15.0,93,0.00,,,0.16,0.000000,,2013-11-23 03:53:00,
2013-11-22 23:03:00,48.0,46.0,-100.00,NW,319,6.0,15.0,93,0.00,,,0.16,0.000000,,2013-11-23 04:03:00,
2013-11-22 23:13:00,48.0,46.0,-100.00,NW,319,6.0,15.0,93,0.00,,,0.16,0.000000,,2013-11-23 04:13:00,
2013-11-22 23:43:00,47.0,45.0,-100.00,NW,317,5.0,11.0,93,0.00,,,0.16,0.000000,,2013-11-23 04:43:00,
2013-11-22 23:53:00,47.0,45.0,-100.00,NW,317,5.0,11.0,93,0.00,,,0.16,0.000000,,2013-11-23 04:53:00,